Time;durP1;ratioP1;P1;durP2;ratioP2;P2;SDS_P1;SDS_P2;PMS_P1;PMS_P2;Temp;Humidity;BMP_temperature;BMP_pressure;BME280_temperature;BME280_humidity;BME280_pressure;Samples;Min_cycle;Max_cycle;Signal;HPM_P1;HPM_P2
2023/09/04 00:00:10;;;;;;;4.78;3.28;;;;;;;13.34;79.88;102287.88;7398058;19;20502;-68
2023/09/04 00:02:39;;;;;;;3.88;3.00;;;;;;;13.33;79.82;102274.69;7397649;19;20014;-68
2023/09/04 00:05:08;;;;;;;3.63;2.80;;;;;;;13.30;79.93;102277.38;7398290;19;20031;-68
2023/09/04 00:07:39;;;;;;;6.35;2.95;;;;;;;13.29;79.97;102279.13;7395943;19;20035;-68
2023/09/04 00:10:08;;;;;;;5.20;3.03;;;;;;;13.28;80.27;102277.38;7398579;19;20035;-68
2023/09/04 00:12:37;;;;;;;3.03;2.70;;;;;;;13.26;80.18;102271.25;7397709;19;20023;-68
2023/09/04 00:15:06;;;;;;;4.50;3.35;;;;;;;13.25;80.23;102277.41;7397880;19;20022;-68
2023/09/04 00:17:35;;;;;;;6.45;3.22;;;;;;;13.24;80.36;102269.50;7397765;19;20014;-68
2023/09/04 00:20:04;;;;;;;3.65;3.30;;;;;;;13.23;80.14;102273.03;7397270;19;20399;-68
2023/09/04 00:22:33;;;;;;;4.28;3.35;;;;;;;13.21;80.25;102270.41;7395542;19;20006;-68
2023/09/04 00:25:04;;;;;;;6.13;3.28;;;;;;;13.19;80.49;102278.34;7397116;19;20524;-68
2023/09/04 00:27:33;;;;;;;3.85;3.00;;;;;;;13.18;80.63;102281.84;7394660;19;20397;-68
2023/09/04 00:30:01;;;;;;;4.82;3.25;;;;;;;13.16;80.75;102275.72;7397380;19;20031;-68
2023/09/04 00:32:29;;;;;;;3.80;3.35;;;;;;;13.15;80.97;102281.00;7396747;19;20557;-68
2023/09/04 00:34:58;;;;;;;5.15;3.90;;;;;;;13.12;81.04;102281.91;7397221;19;20019;-68
2023/09/04 00:37:26;;;;;;;3.30;2.90;;;;;;;13.10;81.07;102275.75;7396655;19;20503;-68
2023/09/04 00:39:55;;;;;;;3.50;3.20;;;;;;;13.08;80.98;102271.38;7394319;19;20014;-68
2023/09/04 00:42:26;;;;;;;6.70;3.15;;;;;;;13.08;81.27;102276.66;7395189;19;20018;-68
2023/09/04 00:44:54;;;;;;;5.30;3.15;;;;;;;13.04;81.19;102275.78;7396890;19;20372;-68
2023/09/04 00:47:25;;;;;;;3.53;3.22;;;;;;;13.02;81.25;102278.44;7394566;19;20011;-68
2023/09/04 00:49:55;;;;;;;5.10;3.60;;;;;;;12.99;81.26;102281.13;7397005;19;20014;-68
2023/09/04 00:52:25;;;;;;;5.18;3.35;;;;;;;12.98;81.39;102278.50;7396514;19;20379;-67
2023/09/04 00:54:54;;;;;;;3.72;3.38;;;;;;;12.97;81.67;102274.13;7394317;19;20027;-68
2023/09/04 00:57:26;;;;;;;5.05;3.60;;;;;;;12.94;81.79;102277.66;7396403;19;20191;-68
2023/09/04 00:59:55;;;;;;;5.80;4.28;;;;;;;12.93;81.77;102282.91;7396738;19;20013;-68
2023/09/04 01:02:23;;;;;;;5.72;3.75;;;;;;;12.91;81.64;102275.03;7396331;19;20022;-68
2023/09/04 01:04:52;;;;;;;6.28;4.35;;;;;;;12.90;81.71;102278.53;7394511;19;20015;-68
2023/09/04 01:07:20;;;;;;;4.18;3.78;;;;;;;12.88;81.82;102278.56;7394431;19;20507;-68
2023/09/04 01:09:49;;;;;;;3.90;3.47;;;;;;;12.87;81.95;102278.56;7396072;19;20010;-68
2023/09/04 01:12:23;;;;;;;4.15;3.60;;;;;;;12.84;81.88;102276.84;7396026;19;20006;-68
2023/09/04 01:14:58;;;;;;;5.28;3.72;;;;;;;12.82;82.17;102285.63;7394285;19;20010;-68
2023/09/04 01:17:28;;;;;;;5.38;3.92;;;;;;;12.80;82.01;102288.28;7396279;19;20007;-68
2023/09/04 01:19:57;;;;;;;3.80;3.35;;;;;;;12.79;82.15;102283.00;7395345;19;20480;-68
2023/09/04 01:22:29;;;;;;;5.63;4.10;;;;;;;12.78;82.34;102284.78;7395693;19;20014;-68
2023/09/04 01:24:57;;;;;;;4.32;3.67;;;;;;;12.76;82.38;102270.72;7395348;19;20537;-68
2023/09/04 01:27:30;;;;;;;3.50;3.17;;;;;;;12.75;82.15;102279.53;7393045;19;20019;-68
2023/09/04 01:30:07;;;;;;;5.55;3.92;;;;;;;12.74;82.25;102266.34;7396038;19;20015;-68
2023/09/04 01:32:41;;;;;;;6.03;3.67;;;;;;;12.71;82.23;102275.16;7394897;19;20016;-68
2023/09/04 01:35:12;;;;;;;4.80;3.45;;;;;;;12.69;82.09;102276.94;7395853;19;20437;-68
2023/09/04 01:37:45;;;;;;;3.70;3.28;;;;;;;12.66;82.43;102280.47;7394924;19;20498;-68
2023/09/04 01:40:14;;;;;;;4.07;3.40;;;;;;;12.63;82.32;102282.25;7395633;19;20032;-68
2023/09/04 01:42:42;;;;;;;4.78;3.50;;;;;;;12.61;82.31;102281.34;7394943;19;20014;-68
2023/09/04 01:45:11;;;;;;;4.45;3.75;;;;;;;12.58;82.35;102287.53;7393007;19;20023;-67
2023/09/04 01:47:40;;;;;;;6.03;3.35;;;;;;;12.56;82.66;102286.63;7393556;19;20018;-68
2023/09/04 01:50:09;;;;;;;5.97;3.42;;;;;;;12.53;82.48;102284.03;7394547;19;20031;-68
2023/09/04 01:52:38;;;;;;;4.00;3.30;;;;;;;12.50;82.71;102290.19;7401577;19;20032;-68
2023/09/04 01:55:10;;;;;;;6.38;3.72;;;;;;;12.47;82.52;102281.44;7402524;19;20031;-68
2023/09/04 01:57:38;;;;;;;6.85;3.85;;;;;;;12.45;82.62;102294.59;7402799;19;20014;-68
2023/09/04 02:00:08;;;;;;;5.35;4.47;;;;;;;12.42;82.74;102281.44;7401958;19;20078;-68
2023/09/04 02:02:37;;;;;;;4.90;3.88;;;;;;;12.39;82.94;102286.75;7399696;19;20015;-68
2023/09/04 02:05:07;;;;;;;5.50;3.70;;;;;;;12.36;83.21;102286.78;7399774;19;20017;-68
2023/09/04 02:07:35;;;;;;;5.32;3.72;;;;;;;12.33;83.10;102294.66;7401214;19;20423;-68
2023/09/04 02:10:03;;;;;;;4.85;3.72;;;;;;;12.31;83.12;102301.66;7399904;19;20507;-68
2023/09/04 02:12:34;;;;;;;7.22;3.80;;;;;;;12.28;83.25;102307.81;7401876;19;20024;-68
2023/09/04 02:15:03;;;;;;;6.82;3.50;;;;;;;12.26;83.30;102299.09;7399338;19;20018;-67
2023/09/04 02:17:31;;;;;;;4.97;3.78;;;;;;;12.24;83.36;102302.59;7401332;19;20549;-68
2023/09/04 02:20:02;;;;;;;5.75;3.78;;;;;;;12.22;83.50;102305.25;7401457;19;20022;-68
2023/09/04 02:22:31;;;;;;;5.82;3.80;;;;;;;12.20;83.71;102302.59;7401694;19;20010;-68
2023/09/04 02:24:59;;;;;;;5.53;3.65;;;;;;;12.18;83.72;102307.00;7401241;19;20020;-68
2023/09/04 02:27:27;;;;;;;3.83;3.50;;;;;;;12.15;83.81;102303.50;7399286;19;20031;-67
2023/09/04 02:29:58;;;;;;;6.05;4.30;;;;;;;12.12;84.00;102309.66;7401654;19;20074;-67
2023/09/04 02:32:27;;;;;;;5.35;3.63;;;;;;;12.10;83.97;102298.25;7398958;19;20018;-68
2023/09/04 02:34:55;;;;;;;3.85;3.30;;;;;;;12.06;84.09;102302.63;7400791;19;20546;-68
2023/09/04 02:37:24;;;;;;;5.57;3.97;;;;;;;12.02;84.31;102300.03;7400898;19;20010;-68
2023/09/04 02:39:52;;;;;;;4.72;3.65;;;;;;;11.99;84.41;102307.94;7400771;19;20014;-68
2023/09/04 02:42:21;;;;;;;7.90;3.83;;;;;;;11.96;84.44;102305.31;7400865;19;20031;-67
2023/09/04 02:44:49;;;;;;;4.40;4.00;;;;;;;11.94;84.71;102309.66;7398236;19;20028;-67
2023/09/04 02:47:20;;;;;;;4.65;4.00;;;;;;;11.92;84.80;102314.03;7399002;19;20491;-68
2023/09/04 02:49:49;;;;;;;4.78;3.90;;;;;;;11.90;84.82;102301.78;7400294;19;20086;-67
2023/09/04 02:52:17;;;;;;;5.40;4.32;;;;;;;11.89;84.82;102304.41;7397587;19;20364;-67
2023/09/04 02:54:46;;;;;;;6.80;4.15;;;;;;;11.89;84.99;102299.16;7397894;19;20028;-67
2023/09/04 02:57:14;;;;;;;4.28;3.88;;;;;;;11.88;85.19;102297.41;7400361;19;20014;-67
2023/09/04 02:59:43;;;;;;;4.82;3.83;;;;;;;11.87;85.07;102300.91;7400461;19;20014;-68
2023/09/04 03:02:11;;;;;;;5.32;3.60;;;;;;;11.87;85.21;102293.03;7399444;19;20496;-68
2023/09/04 03:04:43;;;;;;;5.80;4.50;;;;;;;11.86;85.66;102288.66;7397906;19;20035;-68
2023/09/04 03:07:11;;;;;;;5.40;4.90;;;;;;;11.84;85.61;102291.28;7398524;19;20011;-68
2023/09/04 03:09:40;;;;;;;4.30;3.90;;;;;;;11.83;85.60;102286.91;7397263;19;20014;-68
2023/09/04 03:12:09;;;;;;;5.82;4.00;;;;;;;11.82;85.88;102287.78;7399339;19;20010;-67
2023/09/04 03:14:37;;;;;;;5.13;4.15;;;;;;;11.81;85.96;102275.50;7397613;19;20014;-68
2023/09/04 03:17:06;;;;;;;5.20;3.92;;;;;;;11.81;85.95;102270.25;7399194;19;20441;-68
2023/09/04 03:19:35;;;;;;;7.97;5.00;;;;;;;11.81;85.90;102277.25;7399555;19;20015;-67
2023/09/04 03:22:06;;;;;;;74.25;41.75;;;;;;;11.81;85.97;102278.13;7397295;19;20022;-67
2023/09/04 03:24:34;;;;;;;39.60;25.55;;;;;;;11.81;86.18;102272.88;7396808;19;20027;-67
2023/09/04 03:27:03;;;;;;;9.60;7.78;;;;;;;11.82;86.04;102274.63;7396583;19;20252;-68
2023/09/04 03:29:31;;;;;;;9.30;5.68;;;;;;;11.83;86.00;102278.16;7397024;19;20031;-68
2023/09/04 03:32:00;;;;;;;7.05;5.63;;;;;;;11.83;86.25;102278.16;7398880;19;20376;-67
2023/09/04 03:34:28;;;;;;;7.50;5.75;;;;;;;11.81;86.26;102275.50;7397081;19;20028;-67
2023/09/04 03:36:57;;;;;;;10.32;7.30;;;;;;;11.83;86.11;102276.38;7396089;19;20545;-68
2023/09/04 03:39:29;;;;;;;7.03;5.25;;;;;;;11.83;86.35;102278.16;7398772;19;20024;-68
2023/09/04 03:41:57;;;;;;;7.63;5.40;;;;;;;11.84;86.27;102287.75;7399155;19;20027;-67
2023/09/04 03:44:26;;;;;;;6.00;4.63;;;;;;;11.83;86.36;102281.63;7396375;19;20035;-68
2023/09/04 03:46:55;;;;;;;18.40;10.90;;;;;;;11.83;86.33;102286.91;7397865;19;20013;-68
2023/09/04 03:49:23;;;;;;;11.50;7.32;;;;;;;11.83;86.34;102289.53;7398572;19;20544;-68
2023/09/04 03:51:51;;;;;;;10.57;5.75;;;;;;;11.81;86.43;102287.78;7398509;19;20018;-68
2023/09/04 03:54:20;;;;;;;7.05;5.75;;;;;;;11.83;86.45;102300.03;7396738;19;20031;-68
2023/09/04 03:56:51;;;;;;;12.00;8.10;;;;;;;11.82;86.54;102303.56;7398189;19;20074;-68
2023/09/04 03:59:19;;;;;;;7.82;5.93;;;;;;;11.81;86.44;102301.78;7395725;19;20510;-68
2023/09/04 04:01:48;;;;;;;7.80;5.95;;;;;;;11.81;86.52;102307.06;7395515;19;20027;-67
2023/09/04 04:04:16;;;;;;;8.40;5.93;;;;;;;11.81;86.43;102314.94;7396131;19;20075;-67
2023/09/04 04:06:45;;;;;;;5.75;5.18;;;;;;;11.80;86.40;102328.97;7396556;19;20356;-67
2023/09/04 04:09:15;;;;;;;8.25;6.00;;;;;;;11.78;86.54;102325.47;7397297;19;20014;-67
2023/09/04 04:11:44;;;;;;;7.20;5.97;;;;;;;11.77;86.43;102321.09;7396135;19;20011;-67
2023/09/04 04:14:15;;;;;;;5.82;4.68;;;;;;;11.76;86.50;102324.59;7393999;19;20037;-67
2023/09/04 04:16:43;;;;;;;6.13;4.97;;;;;;;11.74;86.38;102331.63;7395603;19;20034;-67
2023/09/04 04:19:12;;;;;;;7.18;4.75;;;;;;;11.73;86.37;102330.72;7397097;19;20079;-67
2023/09/04 04:21:41;;;;;;;5.80;4.55;;;;;;;11.71;86.51;102326.34;7397129;19;20014;-67
2023/09/04 04:24:09;;;;;;;5.72;4.80;;;;;;;11.70;86.59;102329.84;7395597;19;20011;-67
2023/09/04 04:26:39;;;;;;;5.40;4.63;;;;;;;11.67;86.38;102328.09;7394923;19;20018;-67
2023/09/04 04:29:07;;;;;;;8.50;4.68;;;;;;;11.65;86.49;102332.50;7395193;19;20015;-67
2023/09/04 04:31:39;;;;;;;7.30;4.55;;;;;;;11.62;86.22;102327.25;7396170;19;20431;-67
2023/09/04 04:34:07;;;;;;;7.53;4.88;;;;;;;11.58;86.28;102329.00;7395544;19;20031;-67
2023/09/04 04:36:36;;;;;;;6.53;4.50;;;;;;;11.55;86.21;102331.63;7396472;19;20035;-67
2023/09/04 04:39:04;;;;;;;7.43;5.72;;;;;;;11.53;86.22;102332.50;7396189;19;20031;-67
2023/09/04 04:41:33;;;;;;;9.65;5.00;;;;;;;11.50;86.08;102336.03;7395556;19;20014;-67
2023/09/04 04:44:02;;;;;;;8.68;5.93;;;;;;;11.50;86.24;102343.00;7395178;19;20357;-67
2023/09/04 04:46:30;;;;;;;10.80;5.50;;;;;;;11.49;86.24;102341.28;7396214;19;20014;-67
2023/09/04 04:49:01;;;;;;;7.50;4.75;;;;;;;11.48;86.14;102348.28;7394891;19;20006;-67
2023/09/04 04:51:43;;;;;;;8.75;4.70;;;;;;;11.49;86.44;102341.28;7394859;19;20014;-68
2023/09/04 04:54:12;;;;;;;6.60;4.13;;;;;;;11.49;86.40;102346.53;7394744;19;20108;-67
2023/09/04 04:56:40;;;;;;;6.43;5.82;;;;;;;11.49;86.47;102343.91;7395588;19;20340;-68
2023/09/04 04:59:10;;;;;;;7.38;5.28;;;;;;;11.49;86.38;102338.66;7395832;19;20116;-67
2023/09/04 05:01:38;;;;;;;8.40;4.55;;;;;;;11.51;86.40;102350.91;7392515;19;20014;-67
2023/09/04 05:04:09;;;;;;;6.68;4.68;;;;;;;11.51;86.52;102345.66;7393607;19;20018;-67
2023/09/04 05:09:49;;;;;;;6.20;4.97;;;;;;;11.54;86.77;102344.78;7394654;19;19982;-67
2023/09/04 05:12:17;;;;;;;14.68;5.15;;;;;;;11.56;86.64;102345.63;7394240;19;20018;-67
2023/09/04 05:14:46;;;;;;;8.45;4.85;;;;;;;11.59;86.92;102345.66;7392925;19;20043;-68
2023/09/04 05:17:14;;;;;;;8.63;5.38;;;;;;;11.62;86.84;102348.28;7394878;19;20011;-67
2023/09/04 05:19:45;;;;;;;5.95;5.35;;;;;;;11.65;86.83;102345.66;7393181;19;20019;-67
2023/09/04 05:22:14;;;;;;;10.40;7.35;;;;;;;11.68;87.04;102348.28;7392106;19;20550;-68
2023/09/04 05:24:42;;;;;;;10.05;6.50;;;;;;;11.71;87.02;102350.03;7391281;19;20018;-68
2023/09/04 05:27:11;;;;;;;7.55;6.03;;;;;;;11.76;87.22;102340.38;7392149;19;20411;-67
2023/09/04 05:29:39;;;;;;;10.57;6.13;;;;;;;11.80;87.05;102347.38;7392660;19;20018;-68
2023/09/04 05:32:08;;;;;;;7.63;5.88;;;;;;;11.85;87.24;102339.47;7394026;19;20019;-68
2023/09/04 05:34:39;;;;;;;7.95;6.00;;;;;;;11.89;87.22;102339.50;7392343;19;20014;-68
2023/09/04 05:37:11;;;;;;;9.43;5.32;;;;;;;11.94;87.26;102346.50;7393903;19;20038;-67
2023/09/04 05:39:39;;;;;;;6.22;4.82;;;;;;;11.99;87.16;102350.91;7394739;19;20018;-66
2023/09/04 05:42:08;;;;;;;9.13;6.03;;;;;;;12.02;87.12;102350.88;7391542;19;20419;-65
2023/09/04 05:44:36;;;;;;;7.82;5.50;;;;;;;12.08;87.16;102352.66;7391607;19;20091;-65
2023/09/04 05:47:05;;;;;;;10.15;6.07;;;;;;;12.13;87.14;102352.63;7394705;19;20032;-65
2023/09/04 05:49:34;;;;;;;8.68;5.47;;;;;;;12.20;87.27;102362.25;7394380;19;20477;-66
2023/09/04 05:52:02;;;;;;;7.00;5.55;;;;;;;12.26;87.34;102356.09;7394564;19;20010;-65
2023/09/04 05:54:33;;;;;;;9.35;5.70;;;;;;;12.32;87.25;102358.69;7392604;19;20343;-65
2023/09/04 05:57:02;;;;;;;8.63;5.78;;;;;;;12.37;87.08;102352.56;7392407;19;20450;-65
2023/09/04 05:59:30;;;;;;;11.15;5.43;;;;;;;12.45;87.30;102359.53;7394196;19;20021;-66
2023/09/04 06:01:59;;;;;;;7.75;5.38;;;;;;;12.52;86.97;102363.91;7393582;19;20426;-66
2023/09/04 06:04:27;;;;;;;6.55;4.93;;;;;;;12.58;86.95;102357.75;7391833;19;20018;-66
2023/09/04 06:06:56;;;;;;;8.75;5.40;;;;;;;12.64;87.08;102355.09;7393564;19;20010;-66
2023/09/04 06:09:25;;;;;;;8.02;5.22;;;;;;;12.69;86.74;102361.22;7391717;19;20027;-66
2023/09/04 06:11:56;;;;;;;9.93;6.05;;;;;;;12.76;86.93;102360.25;7394179;19;20031;-67
2023/09/04 06:14:25;;;;;;;8.18;5.50;;;;;;;12.83;86.73;102367.25;7392404;19;20422;-66
2023/09/04 06:16:53;;;;;;;9.77;5.13;;;;;;;12.91;86.64;102358.47;7394498;19;20035;-67
2023/09/04 06:19:22;;;;;;;9.85;5.70;;;;;;;12.98;86.85;102354.91;7395238;19;20010;-67
2023/09/04 06:21:50;;;;;;;11.15;5.95;;;;;;;13.04;86.67;102350.47;7394027;19;20015;-66
2023/09/04 06:24:19;;;;;;;7.35;5.25;;;;;;;13.13;86.67;102351.28;7392285;19;20074;-66
2023/09/04 06:26:47;;;;;;;9.18;5.75;;;;;;;13.20;86.80;102345.97;7391174;19;20018;-66
2023/09/04 06:29:19;;;;;;;9.68;5.45;;;;;;;13.28;87.04;102350.28;7391171;19;20011;-67
2023/09/04 06:31:48;;;;;;;6.00;4.85;;;;;;;13.36;86.85;102352.00;7392729;19;20014;-66
2023/09/04 06:34:16;;;;;;;8.25;5.13;;;;;;;13.44;86.70;102362.50;7391080;19;20018;-66
2023/09/04 06:36:45;;;;;;;7.85;5.00;;;;;;;13.52;86.79;102363.34;7394540;19;20024;-66
2023/09/04 06:39:13;;;;;;;9.27;5.40;;;;;;;13.60;86.75;102360.63;7397879;19;20031;-66
2023/09/04 06:41:42;;;;;;;5.85;5.15;;;;;;;13.69;86.48;102351.75;7400172;19;20023;-65
2023/09/04 06:44:10;;;;;;;10.00;6.07;;;;;;;13.77;86.73;102356.97;7398627;19;20035;-65
2023/09/04 06:46:42;;;;;;;8.98;6.30;;;;;;;13.86;86.60;102364.78;7399695;19;20447;-66
2023/09/04 06:49:10;;;;;;;7.32;4.60;;;;;;;13.94;86.51;102357.69;7398552;19;20023;-65
2023/09/04 06:51:39;;;;;;;8.27;5.55;;;;;;;14.02;86.24;102360.22;7400189;19;20027;-66
2023/09/04 06:54:07;;;;;;;8.98;4.80;;;;;;;14.10;86.29;102365.44;7397080;19;20006;-67
2023/09/04 06:56:36;;;;;;;5.65;5.05;;;;;;;14.18;86.00;102367.09;7400132;19;20066;-66
2023/09/04 06:59:04;;;;;;;4.78;4.28;;;;;;;14.26;85.92;102363.50;7399501;19;20019;-66
2023/09/04 07:01:33;;;;;;;5.15;4.65;;;;;;;14.33;85.73;102368.69;7400223;19;20015;-67
2023/09/04 07:04:05;;;;;;;8.85;4.50;;;;;;;14.41;85.24;102368.59;7397334;19;20010;-68
2023/09/04 07:06:33;;;;;;;6.32;4.18;;;;;;;14.49;85.18;102373.78;7400579;19;20038;-69
2023/09/04 07:09:02;;;;;;;6.43;4.32;;;;;;;14.57;84.78;102371.03;7398618;19;20071;-69
2023/09/04 07:11:30;;;;;;;6.43;4.07;;;;;;;14.64;84.85;102376.25;7399178;19;20024;-69
2023/09/04 07:13:58;;;;;;;5.40;4.07;;;;;;;14.74;84.46;102376.16;7397158;19;20374;-68
2023/09/04 07:16:27;;;;;;;6.53;4.18;;;;;;;14.80;84.38;102371.66;7398783;19;20007;-68
2023/09/04 07:18:56;;;;;;;4.75;4.15;;;;;;;14.89;84.03;102369.81;7399164;19;20018;-68
2023/09/04 07:21:27;;;;;;;7.18;3.90;;;;;;;14.96;83.98;102377.63;7398888;19;20031;-68
2023/09/04 07:23:55;;;;;;;4.00;3.63;;;;;;;15.04;83.81;102381.91;7396981;19;20035;-69
2023/09/04 07:26:24;;;;;;;6.18;4.07;;;;;;;15.12;83.70;102380.03;7396704;19;20018;-69
2023/09/04 07:28:53;;;;;;;5.70;3.63;;;;;;;15.21;83.44;102379.03;7397094;19;20014;-68
2023/09/04 07:31:23;;;;;;;5.55;3.92;;;;;;;15.29;83.19;102374.47;7398900;19;20011;-69
2023/09/04 07:33:52;;;;;;;5.50;3.72;;;;;;;15.37;83.12;102362.03;7399053;19;20007;-69
2023/09/04 07:36:21;;;;;;;5.97;3.33;;;;;;;15.47;82.80;102358.31;7401770;19;20023;-71
2023/09/04 07:38:52;;;;;;;4.22;3.08;;;;;;;15.56;82.83;102356.44;7399217;19;20022;-69
2023/09/04 07:41:20;;;;;;;6.45;3.45;;;;;;;15.64;82.76;102352.78;7396975;19;20079;-68
2023/09/04 07:43:49;;;;;;;4.97;3.17;;;;;;;15.75;82.30;102351.69;7396580;19;20366;-69
2023/09/04 07:46:17;;;;;;;4.78;3.25;;;;;;;15.84;82.06;102351.56;7394824;19;20031;-68
2023/09/04 07:48:46;;;;;;;4.60;3.10;;;;;;;15.94;81.63;102342.53;7394472;19;20022;-68
2023/09/04 07:51:15;;;;;;;4.18;2.70;;;;;;;16.04;81.41;102343.25;7397756;19;20014;-68
2023/09/04 07:53:43;;;;;;;5.53;3.10;;;;;;;16.15;80.92;102344.81;7396689;19;20014;-68
2023/09/04 07:56:14;;;;;;;5.18;2.70;;;;;;;16.25;80.98;102343.72;7398015;19;20485;-68
2023/09/04 07:58:44;;;;;;;6.10;2.75;;;;;;;16.33;80.59;102347.09;7396057;19;20023;-68
2023/09/04 08:01:14;;;;;;;5.45;2.70;;;;;;;16.43;80.56;102346.00;7397984;19;20084;-68
2023/09/04 08:03:42;;;;;;;3.55;1.88;;;;;;;16.54;79.76;102344.91;7396182;19;20020;-68
2023/09/04 08:06:11;;;;;;;4.55;2.40;;;;;;;16.63;79.29;102347.38;7397146;19;20011;-68
2023/09/04 08:08:40;;;;;;;3.50;2.08;;;;;;;16.71;78.90;102345.41;7396171;19;20545;-68
2023/09/04 08:11:08;;;;;;;3.63;2.00;;;;;;;16.80;78.71;102341.69;7397649;19;20031;-68
2023/09/04 08:13:39;;;;;;;3.38;2.13;;;;;;;16.88;78.20;102345.03;7396715;19;20014;-68
2023/09/04 08:16:08;;;;;;;3.90;1.90;;;;;;;16.96;78.23;102347.56;7397989;19;20035;-68
2023/09/04 08:18:36;;;;;;;2.63;2.00;;;;;;;17.03;77.56;102343.81;7394866;19;20023;-68
2023/09/04 08:21:04;;;;;;;3.45;2.08;;;;;;;17.10;77.06;102341.94;7396706;19;20023;-68
2023/09/04 08:23:33;;;;;;;4.82;1.88;;;;;;;17.19;76.82;102348.78;7396370;19;20027;-68
2023/09/04 08:26:01;;;;;;;2.30;1.88;;;;;;;17.25;76.36;102343.34;7397956;19;20031;-68
2023/09/04 08:28:30;;;;;;;3.42;2.05;;;;;;;17.33;76.08;102344.00;7395466;19;20022;-68
2023/09/04 08:31:01;;;;;;;4.13;1.92;;;;;;;17.40;75.57;102342.06;7396723;19;20375;-68
2023/09/04 08:33:30;;;;;;;3.25;1.88;;;;;;;17.48;75.55;102336.56;7396047;19;20010;-68
2023/09/04 08:35:58;;;;;;;3.78;2.00;;;;;;;17.55;75.23;102339.03;7396526;19;20014;-68
2023/09/04 08:38:27;;;;;;;3.95;1.88;;;;;;;17.64;74.54;102345.91;7394537;19;20014;-68
2023/09/04 08:40:58;;;;;;;3.47;1.60;;;;;;;17.76;74.16;102331.44;7394176;19;20557;-68
2023/09/04 08:43:31;;;;;;;2.33;1.67;;;;;;;17.87;73.60;102342.63;7394486;19;20536;-67
2023/09/04 08:46:03;;;;;;;4.20;2.10;;;;;;;17.96;73.18;102344.19;7395387;19;20027;-68
2023/09/04 08:48:33;;;;;;;4.88;2.00;;;;;;;18.03;72.85;102339.56;7396365;19;20032;-68
2023/09/04 08:51:02;;;;;;;4.32;2.28;;;;;;;18.09;71.97;102335.91;7394747;19;20031;-68
2023/09/04 08:53:31;;;;;;;2.40;1.45;;;;;;;18.18;70.69;102338.28;7395568;19;20093;-68
2023/09/04 08:56:02;;;;;;;3.00;2.20;;;;;;;18.26;70.02;102333.63;7396453;19;20014;-67
2023/09/04 08:58:31;;;;;;;3.17;1.90;;;;;;;18.34;69.92;102336.94;7396171;19;20021;-67
2023/09/04 09:01:03;;;;;;;2.92;2.30;;;;;;;18.44;69.49;102342.84;7395489;19;20035;-68
2023/09/04 09:03:32;;;;;;;3.22;1.98;;;;;;;18.51;69.37;102330.25;7393763;19;20038;-68
2023/09/04 09:06:01;;;;;;;3.47;2.30;;;;;;;18.56;68.95;102325.66;7395135;19;20011;-68
2023/09/04 09:08:32;;;;;;;3.72;1.55;;;;;;;18.61;68.89;102331.69;7395439;19;20028;-68
2023/09/04 09:11:01;;;;;;;3.03;1.75;;;;;;;18.65;68.38;102320.06;7393060;19;20011;-67
2023/09/04 09:13:29;;;;;;;1.52;1.40;;;;;;;18.71;68.24;102326.97;7393679;19;20089;-68
2023/09/04 09:15:58;;;;;;;2.58;1.38;;;;;;;18.77;67.76;102317.97;7394984;19;20046;-68
2023/09/04 09:18:43;;;;;;;4.57;1.85;;;;;;;18.87;66.48;102328.22;7392914;19;20376;-68
2023/09/04 09:21:25;;;;;;;3.47;1.60;;;;;;;18.96;66.47;102318.28;7394743;19;20010;-68
2023/09/04 09:24:13;;;;;;;1.95;1.30;;;;;;;19.04;66.15;102314.44;7393592;19;20428;-68
2023/09/04 09:26:42;;;;;;;2.33;1.48;;;;;;;19.14;66.83;102304.34;7394624;19;20007;-68
2023/09/04 09:29:12;;;;;;;2.85;1.50;;;;;;;19.24;66.30;102312.06;7392741;19;20393;-68
2023/09/04 09:31:42;;;;;;;2.03;1.30;;;;;;;19.31;65.62;102317.13;7393890;19;20146;-67
2023/09/04 09:34:14;;;;;;;1.92;1.50;;;;;;;19.40;64.96;102317.72;7393672;19;20015;-70
2023/09/04 09:36:42;;;;;;;5.10;1.65;;;;;;;19.47;64.47;102316.59;7394669;19;20473;-68
2023/09/04 09:39:11;;;;;;;2.78;1.20;;;;;;;19.55;64.52;102319.88;7394338;19;20485;-67
2023/09/04 09:41:39;;;;;;;4.22;1.48;;;;;;;19.61;63.70;102313.44;7394046;19;20010;-67
2023/09/04 09:44:08;;;;;;;2.78;1.10;;;;;;;19.66;63.62;102317.69;7393282;19;20007;-68
2023/09/04 09:46:39;;;;;;;3.67;1.23;;;;;;;19.69;62.68;102308.72;7392373;19;20389;-68
2023/09/04 09:49:09;;;;;;;1.77;1.15;;;;;;;19.74;62.24;102314.75;7394076;19;20010;-69
2023/09/04 09:51:41;;;;;;;8.48;1.20;;;;;;;19.81;62.04;102310.06;7394285;19;20015;-68
2023/09/04 09:54:12;;;;;;;3.25;1.15;;;;;;;19.88;61.34;102316.97;7393991;19;20035;-68
2023/09/04 09:56:42;;;;;;;2.13;1.10;;;;;;;19.94;60.87;102310.53;7394558;19;20011;-67
2023/09/04 09:59:11;;;;;;;2.78;1.10;;;;;;;19.98;60.17;102313.03;7394188;19;20010;-68
2023/09/04 10:01:40;;;;;;;1.33;1.00;;;;;;;20.01;59.16;102312.91;7394907;19;20002;-68
2023/09/04 10:04:09;;;;;;;3.05;0.95;;;;;;;20.05;59.83;102310.16;7392206;19;20022;-68
2023/09/04 10:06:43;;;;;;;2.05;1.20;;;;;;;20.09;59.42;102309.09;7392890;19;20015;-67
2023/09/04 10:09:13;;;;;;;4.82;1.40;;;;;;;20.14;59.40;102312.47;7393094;19;20070;-67
2023/09/04 10:11:46;;;;;;;1.48;1.30;;;;;;;20.18;58.96;102317.63;7394867;19;20099;-67
2023/09/04 10:14:18;;;;;;;2.50;1.40;;;;;;;20.22;58.97;102310.41;7399281;19;20366;-67
2023/09/04 10:17:01;;;;;;;2.17;1.10;;;;;;;20.27;59.26;102312.88;7398252;19;20007;-67
2023/09/04 10:19:33;;;;;;;2.50;1.40;;;;;;;20.30;59.19;102302.97;7400660;19;20010;-67
2023/09/04 10:22:06;;;;;;;2.00;1.05;;;;;;;20.34;59.13;102303.72;7401866;19;20090;-67
2023/09/04 10:24:39;;;;;;;;;;;;;;;20.40;58.48;102306.16;7399808;19;20077;-67
2023/09/04 10:27:16;;;;;;;2.35;1.50;;;;;;;20.45;58.55;102311.31;7398112;19;19914;-68
2023/09/04 10:29:50;;;;;;;2.63;1.23;;;;;;;20.51;59.39;102293.28;7399792;19;20018;-69
2023/09/04 10:32:19;;;;;;;1.65;1.30;;;;;;;20.58;59.46;102295.72;7401643;19;20038;-69
2023/09/04 10:34:48;;;;;;;1.52;1.23;;;;;;;20.62;59.12;102295.50;7397961;19;20015;-69
2023/09/04 10:37:20;;;;;;;2.53;1.77;;;;;;;20.68;58.86;102297.06;7398124;19;20363;-68
2023/09/04 10:39:49;;;;;;;2.38;1.17;;;;;;;20.73;58.99;102292.47;7397818;19;20011;-68
2023/09/04 10:42:18;;;;;;;2.53;1.33;;;;;;;20.80;58.81;102298.41;7401052;19;20370;-68
2023/09/04 10:44:47;;;;;;;3.47;1.40;;;;;;;20.83;58.42;102287.63;7398914;19;20015;-68
2023/09/04 10:47:17;;;;;;;0.98;0.80;;;;;;;20.90;58.53;102293.56;7400602;19;20015;-69
2023/09/04 10:49:46;;;;;;;2.05;1.05;;;;;;;20.93;57.93;102280.97;7399481;19;20007;-68
2023/09/04 10:52:23;;;;;;;1.95;1.35;;;;;;;20.98;58.19;102279.00;7400432;19;20010;-67
2023/09/04 10:55:15;;;;;;;1.73;1.20;;;;;;;21.07;57.47;102274.22;7397768;19;20015;-68
2023/09/04 10:57:56;;;;;;;1.25;0.93;;;;;;;21.14;57.19;102273.88;7400616;19;20027;-68
2023/09/04 11:00:36;;;;;;;1.98;1.23;;;;;;;21.22;56.83;102278.00;7399896;19;20003;-68
2023/09/04 11:03:20;;;;;;;2.67;1.42;;;;;;;21.27;56.17;102274.22;7399037;19;20011;-68
2023/09/04 11:06:20;;;;;;;4.28;1.45;;;;;;;21.35;55.93;102270.38;7400293;19;20018;-68
2023/09/04 11:08:53;;;;;;;3.67;1.40;;;;;;;21.41;56.26;102267.44;7394810;19;20512;-68
2023/09/04 11:11:30;;;;;;;;;;;;;;;21.46;55.05;102266.28;7399433;19;20044;-68
2023/09/04 11:14:00;;;;;;;17.67;6.25;;;;;;;21.52;56.13;102266.94;7397078;19;19935;-69
2023/09/04 11:16:29;;;;;;;5.72;2.38;;;;;;;21.58;55.67;102266.72;7397552;19;20074;-69
2023/09/04 11:19:06;;;;;;;7.68;3.95;;;;;;;21.63;55.62;102268.28;7397566;19;20137;-67
2023/09/04 11:21:37;;;;;;;4.00;2.60;;;;;;;21.70;55.29;102266.19;7399168;19;20094;-67
2023/09/04 11:24:07;;;;;;;3.60;1.60;;;;;;;21.79;55.07;102267.56;7395568;19;20034;-67
2023/09/04 11:26:39;;;;;;;2.55;1.40;;;;;;;21.86;55.09;102266.34;7398450;19;20011;-68
2023/09/04 11:29:08;;;;;;;2.38;1.35;;;;;;;21.97;54.59;102265.84;7397156;19;20010;-67
2023/09/04 11:31:37;;;;;;;2.80;1.77;;;;;;;22.06;54.62;102268.09;7398604;19;20011;-67
2023/09/04 11:34:06;;;;;;;4.35;1.50;;;;;;;22.19;54.33;102267.53;7396385;19;20481;-67
2023/09/04 11:36:36;;;;;;;2.28;1.80;;;;;;;22.29;54.18;102255.47;7395733;19;20015;-67
2023/09/04 11:39:08;;;;;;;4.88;2.00;;;;;;;22.41;53.90;102251.38;7397987;19;20489;-67